createdAt,value
2018-08-22T00:00:33.273Z,1017.11
2018-08-22T00:01:33.313Z,1017.13
2018-08-22T00:02:33.318Z,1017.1
2018-08-22T00:03:33.341Z,1017.11
2018-08-22T00:04:33.364Z,1017.14
2018-08-22T00:05:33.388Z,1017.12
2018-08-22T00:06:33.410Z,1017.13
2018-08-22T00:07:33.435Z,1017.09
2018-08-22T00:08:33.456Z,1017.15
2018-08-22T00:09:33.478Z,1017.11
2018-08-22T00:10:33.506Z,1017.08
2018-08-22T00:11:33.524Z,1017.11
2018-08-22T00:12:33.547Z,1017.12
2018-08-22T00:13:33.569Z,1017.08
2018-08-22T00:15:33.615Z,1017.08
2018-08-22T00:16:33.638Z,1017.13
2018-08-22T00:17:33.662Z,1017.11
2018-08-22T00:18:33.683Z,1017.1
2018-08-22T00:19:33.712Z,1017.13
2018-08-22T00:20:33.729Z,1017.07
2018-08-22T00:21:33.750Z,1017.08
2018-08-22T00:22:33.823Z,1017.12
2018-08-22T00:23:33.797Z,1017.11
2018-08-22T00:24:33.818Z,1017.14
2018-08-22T00:25:33.844Z,1017.17
2018-08-22T00:26:33.864Z,1017.14
2018-08-22T00:27:33.888Z,1017.16
2018-08-22T00:28:33.909Z,1017.16
2018-08-22T00:29:33.933Z,1017.11
2018-08-22T00:31:33.981Z,1017.12
2018-08-22T00:32:34.001Z,1017.14
2018-08-22T00:33:34.024Z,1017.14
2018-08-22T00:34:34.046Z,1017.15
2018-08-22T00:35:34.068Z,1017.15
2018-08-22T00:36:34.091Z,1017.21
2018-08-22T00:37:34.114Z,1017.14
2018-08-22T00:38:34.138Z,1017.19
2018-08-22T00:39:34.159Z,1017.17
2018-08-22T00:40:34.182Z,1017.18
2018-08-22T00:41:34.205Z,1017.19
2018-08-22T00:42:34.228Z,1017.19
2018-08-22T00:43:34.250Z,1017.2
2018-08-22T00:44:34.273Z,1017.22
2018-08-22T00:45:34.296Z,1017.16
2018-08-22T00:47:34.340Z,1017.13
2018-08-22T00:48:34.363Z,1017.14
2018-08-22T00:49:34.386Z,1017.11
2018-08-22T00:50:34.408Z,1017.11
2018-08-22T00:51:34.432Z,1017.1
2018-08-22T00:52:34.454Z,1017.12
2018-08-22T00:53:34.477Z,1017.09
2018-08-22T00:54:34.499Z,1017.14
2018-08-22T00:55:34.522Z,1017.11
2018-08-22T00:56:34.545Z,1017.09
2018-08-22T00:57:34.568Z,1017.11
2018-08-22T00:58:34.590Z,1017.14
2018-08-22T00:59:34.613Z,1017.13
2018-08-22T01:00:34.636Z,1017.13
2018-08-22T01:01:34.657Z,1017.13
2018-08-22T01:03:34.704Z,1017.16
2018-08-22T01:04:34.727Z,1017.13
2018-08-22T01:05:34.748Z,1017.15
2018-08-22T01:06:34.770Z,1017.17
2018-08-22T01:07:34.793Z,1017.14
2018-08-22T01:08:34.815Z,1017.11
2018-08-22T01:09:34.839Z,1017.1
2018-08-22T01:10:34.862Z,1017.08
2018-08-22T01:11:34.884Z,1017.1
2018-08-22T01:12:34.906Z,1017.11
2018-08-22T01:13:34.929Z,1017.07
2018-08-22T01:14:34.951Z,1017.1
2018-08-22T01:15:34.974Z,1017.09
2018-08-22T01:16:34.997Z,1017.06
2018-08-22T01:18:35.043Z,1017.03
2018-08-22T01:19:35.065Z,1017.05
2018-08-22T01:20:35.087Z,1017.04
2018-08-22T01:21:35.110Z,1017.06
2018-08-22T01:22:35.132Z,1017.05
2018-08-22T01:23:35.154Z,1017.01
2018-08-22T01:24:35.177Z,1017.03
2018-08-22T01:25:35.204Z,1017.04
2018-08-22T01:26:35.224Z,1017.06
2018-08-22T01:27:35.245Z,1017.05
2018-08-22T01:28:35.267Z,1017.04
2018-08-22T01:29:35.290Z,1017.06
2018-08-22T01:30:35.311Z,1017.03
2018-08-22T01:31:35.334Z,1017.02
2018-08-22T01:32:35.357Z,1017.01
2018-08-22T01:33:35.379Z,1017.05
2018-08-22T01:34:35.401Z,1017.06
2018-08-22T01:35:35.426Z,1017.05
2018-08-22T01:36:35.448Z,1017.04
2018-08-22T01:37:35.468Z,1017.04
2018-08-22T01:38:35.491Z,1017.04
2018-08-22T01:39:35.515Z,1017.01
2018-08-22T01:40:35.536Z,1017.04
2018-08-22T01:41:35.558Z,1017.01
2018-08-22T01:42:35.581Z,1017.02
2018-08-22T01:43:35.603Z,1017.03
2018-08-22T01:44:35.626Z,1017.03
2018-08-22T01:45:35.647Z,1017.02
2018-08-22T01:46:35.671Z,1016.99
2018-08-22T01:47:35.693Z,1016.98
2018-08-22T01:48:35.714Z,1016.92
2018-08-22T01:50:35.759Z,1016.91
2018-08-22T01:51:35.784Z,1016.87
2018-08-22T01:52:35.807Z,1016.87
2018-08-22T01:53:35.827Z,1016.85
2018-08-22T01:54:35.849Z,1016.87
2018-08-22T01:55:35.871Z,1016.83
2018-08-22T01:56:35.893Z,1016.85
2018-08-22T01:57:35.916Z,1016.9
2018-08-22T01:58:35.938Z,1016.81
2018-08-22T01:59:35.960Z,1016.86
2018-08-22T02:00:35.983Z,1016.83
2018-08-22T02:01:36.005Z,1016.78
2018-08-22T02:02:36.028Z,1016.83
2018-08-22T02:03:36.049Z,1016.78
2018-08-22T02:04:36.072Z,1016.8
2018-08-22T02:06:36.117Z,1016.78
2018-08-22T02:07:36.139Z,1016.78
2018-08-22T02:08:36.161Z,1016.77
2018-08-22T02:09:36.185Z,1016.78
2018-08-22T02:10:36.206Z,1016.8
2018-08-22T02:11:36.228Z,1016.73
2018-08-22T02:12:36.251Z,1016.77
2018-08-22T02:13:36.275Z,1016.74
2018-08-22T02:14:36.295Z,1016.76
2018-08-22T02:15:36.322Z,1016.78
2018-08-22T02:16:36.339Z,1016.76
2018-08-22T02:17:36.364Z,1016.75
2018-08-22T02:18:36.383Z,1016.71
2018-08-22T02:19:36.406Z,1016.73
2018-08-22T02:20:36.428Z,1016.7
2018-08-22T02:22:36.472Z,1016.7
2018-08-22T02:23:36.495Z,1016.7
2018-08-22T02:24:36.518Z,1016.69
2018-08-22T02:25:36.541Z,1016.69
2018-08-22T02:26:36.567Z,1016.69
2018-08-22T02:27:36.585Z,1016.7
2018-08-22T02:28:36.608Z,1016.69
2018-08-22T02:29:36.630Z,1016.64
2018-08-22T02:30:36.652Z,1016.68
2018-08-22T02:31:36.675Z,1016.67
2018-08-22T02:32:36.694Z,1016.69
2018-08-22T02:33:36.718Z,1016.71
2018-08-22T02:34:36.740Z,1016.74
2018-08-22T02:35:36.763Z,1016.73
2018-08-22T02:36:36.784Z,1016.73
2018-08-22T02:38:36.828Z,1016.72
2018-08-22T02:39:36.852Z,1016.69
2018-08-22T02:40:36.873Z,1016.66
2018-08-22T02:41:36.895Z,1016.68
2018-08-22T02:42:36.918Z,1016.69
2018-08-22T02:43:36.940Z,1016.7
2018-08-22T02:44:36.961Z,1016.72
2018-08-22T02:45:36.983Z,1016.72
2018-08-22T02:46:37.006Z,1016.71
2018-08-22T02:47:37.028Z,1016.7
2018-08-22T02:48:37.050Z,1016.69
2018-08-22T02:49:37.071Z,1016.67
2018-08-22T02:50:37.094Z,1016.67
2018-08-22T02:51:37.117Z,1016.68
2018-08-22T02:53:37.160Z,1016.73
2018-08-22T02:54:37.184Z,1016.72
2018-08-22T02:55:37.205Z,1016.68
2018-08-22T02:56:37.227Z,1016.72
2018-08-22T02:57:37.254Z,1016.67
2018-08-22T02:58:37.269Z,1016.69
2018-08-22T02:59:37.295Z,1016.7
2018-08-22T03:00:37.315Z,1016.67
2018-08-22T03:01:37.340Z,1016.66
2018-08-22T03:02:37.360Z,1016.64
2018-08-22T03:03:37.381Z,1016.67
2018-08-22T03:04:37.404Z,1016.67
2018-08-22T03:05:37.426Z,1016.68
2018-08-22T03:06:37.447Z,1016.63
2018-08-22T03:07:37.470Z,1016.66
2018-08-22T03:08:37.496Z,1016.67
2018-08-22T03:09:37.519Z,1016.66
2018-08-22T03:10:37.535Z,1016.65
2018-08-22T03:11:37.558Z,1016.66
2018-08-22T03:12:37.579Z,1016.65
2018-08-22T03:13:37.601Z,1016.67
2018-08-22T03:14:37.634Z,1016.69
2018-08-22T03:15:37.648Z,1016.64
2018-08-22T03:16:37.667Z,1016.67
2018-08-22T03:17:37.688Z,1016.68
2018-08-22T03:18:37.710Z,1016.66
2018-08-22T03:19:37.832Z,1016.65
2018-08-22T03:20:37.754Z,1016.66
2018-08-22T03:21:37.776Z,1016.64
2018-08-22T03:22:37.798Z,1016.63
2018-08-22T03:23:37.819Z,1016.66
2018-08-22T03:25:37.864Z,1016.65
2018-08-22T03:26:37.886Z,1016.63
2018-08-22T03:27:37.907Z,1016.63
2018-08-22T03:28:37.929Z,1016.61
2018-08-22T03:29:37.957Z,1016.63
2018-08-22T03:30:37.973Z,1016.63
2018-08-22T03:31:37.995Z,1016.62
2018-08-22T03:32:38.016Z,1016.64
2018-08-22T03:33:38.045Z,1016.61
2018-08-22T03:34:38.060Z,1016.66
2018-08-22T03:35:38.082Z,1016.67
2018-08-22T03:36:38.104Z,1016.68
2018-08-22T03:37:38.126Z,1016.68
2018-08-22T03:38:38.147Z,1016.66
2018-08-22T03:39:38.169Z,1016.66
2018-08-22T03:41:38.213Z,1016.66
2018-08-22T03:42:38.234Z,1016.68
2018-08-22T03:43:38.258Z,1016.7
2018-08-22T03:44:38.279Z,1016.7
2018-08-22T03:45:38.299Z,1016.74
2018-08-22T03:46:38.321Z,1016.71
2018-08-22T03:47:38.344Z,1016.75
2018-08-22T03:48:38.365Z,1016.71
2018-08-22T03:49:38.387Z,1016.7
2018-08-22T03:50:38.409Z,1016.69
2018-08-22T03:51:38.431Z,1016.7
2018-08-22T03:52:38.453Z,1016.69
2018-08-22T03:53:38.474Z,1016.66
2018-08-22T03:54:38.496Z,1016.65
2018-08-22T03:55:38.518Z,1016.65
2018-08-22T03:57:38.560Z,1016.59
2018-08-22T03:58:38.583Z,1016.6
2018-08-22T03:59:38.605Z,1016.61
2018-08-22T04:00:38.626Z,1016.65
2018-08-22T04:01:38.649Z,1016.65
2018-08-22T04:02:38.670Z,1016.65
2018-08-22T04:03:38.691Z,1016.64
2018-08-22T04:04:38.712Z,1016.62
2018-08-22T04:05:38.735Z,1016.64
2018-08-22T04:06:38.755Z,1016.64
2018-08-22T04:07:38.779Z,1016.65
2018-08-22T04:08:38.799Z,1016.61
2018-08-22T04:09:38.820Z,1016.62
2018-08-22T04:10:38.844Z,1016.65
2018-08-22T04:11:38.865Z,1016.64
2018-08-22T04:13:38.907Z,1016.63
2018-08-22T04:14:38.929Z,1016.61
2018-08-22T04:15:38.955Z,1016.61
2018-08-22T04:16:38.972Z,1016.63
2018-08-22T04:17:38.995Z,1016.6
2018-08-22T04:18:39.016Z,1016.61
2018-08-22T04:19:39.038Z,1016.63
2018-08-22T04:20:39.060Z,1016.65
2018-08-22T04:21:39.081Z,1016.65
2018-08-22T04:22:39.103Z,1016.6
2018-08-22T04:23:39.125Z,1016.62
2018-08-22T04:24:39.147Z,1016.61
2018-08-22T04:25:39.172Z,1016.62
2018-08-22T04:26:39.191Z,1016.59
2018-08-22T04:28:39.235Z,1016.61
2018-08-22T04:29:39.256Z,1016.62
2018-08-22T04:30:39.278Z,1016.61
2018-08-22T04:31:39.300Z,1016.6
2018-08-22T04:32:39.322Z,1016.6
2018-08-22T04:33:39.343Z,1016.64
2018-08-22T04:34:39.365Z,1016.62
2018-08-22T04:35:39.387Z,1016.6
2018-08-22T04:36:39.407Z,1016.61
2018-08-22T04:37:39.428Z,1016.64
2018-08-22T04:38:39.452Z,1016.61
2018-08-22T04:39:39.474Z,1016.64
2018-08-22T04:40:39.494Z,1016.65
2018-08-22T04:41:39.517Z,1016.66
2018-08-22T04:42:39.539Z,1016.65
2018-08-22T04:43:39.566Z,1016.61
2018-08-22T04:44:39.582Z,1016.62
2018-08-22T04:45:39.604Z,1016.67
2018-08-22T04:46:39.626Z,1016.66
2018-08-22T04:47:39.647Z,1016.61
2018-08-22T04:48:39.669Z,1016.66
2018-08-22T04:49:39.692Z,1016.64
2018-08-22T04:50:39.713Z,1016.66
2018-08-22T04:51:39.736Z,1016.66
2018-08-22T04:52:39.757Z,1016.66
2018-08-22T04:53:39.779Z,1016.67
2018-08-22T04:54:39.802Z,1016.73
2018-08-22T04:55:39.825Z,1016.81
2018-08-22T04:56:39.847Z,1016.88
2018-08-22T04:57:39.870Z,1016.83
2018-08-22T04:58:39.891Z,1016.83
2018-08-22T05:00:39.938Z,1016.93
2018-08-22T05:01:39.962Z,1016.94
2018-08-22T05:02:39.985Z,1016.9
2018-08-22T05:03:40.009Z,1016.93
2018-08-22T05:04:40.033Z,1016.98
2018-08-22T05:05:40.057Z,1017
2018-08-22T05:06:40.080Z,1017.01
2018-08-22T05:07:40.106Z,1017.08
2018-08-22T05:08:40.131Z,1017.16
2018-08-22T05:09:40.156Z,1017.17
2018-08-22T05:10:40.181Z,1017.17
2018-08-22T05:11:40.209Z,1017.19
2018-08-22T05:12:40.232Z,1017.2
2018-08-22T05:13:40.256Z,1017.22
2018-08-22T05:14:40.283Z,1017.21
2018-08-22T05:16:40.342Z,1017.27
2018-08-22T05:17:40.361Z,1017.29
2018-08-22T05:18:40.388Z,1017.33
2018-08-22T05:19:40.414Z,1017.25
2018-08-22T05:20:40.441Z,1017.13
2018-08-22T05:21:40.467Z,1017.15
2018-08-22T05:22:40.496Z,1017.25
2018-08-22T05:23:40.522Z,1017.31
2018-08-22T05:24:40.608Z,1017.39
2018-08-22T05:25:40.577Z,1017.36
2018-08-22T05:26:40.607Z,1017.35
2018-08-22T05:27:40.632Z,1017.29
2018-08-22T05:28:40.660Z,1017.39
2018-08-22T05:29:40.686Z,1017.37
2018-08-22T05:30:40.717Z,1017.39
2018-08-22T05:32:40.772Z,1017.37
2018-08-22T05:33:40.801Z,1017.34
2018-08-22T05:34:40.829Z,1017.39
2018-08-22T05:35:40.858Z,1017.41
2018-08-22T05:36:40.888Z,1017.44
2018-08-22T05:37:40.917Z,1017.4
2018-08-22T05:38:40.950Z,1017.37
2018-08-22T05:39:40.976Z,1017.44
2018-08-22T05:40:41.035Z,1017.49
2018-08-22T05:41:41.035Z,1017.6
2018-08-22T05:42:41.065Z,1017.62
2018-08-22T05:43:41.196Z,1017.61
2018-08-22T05:44:41.126Z,1017.65
2018-08-22T05:45:41.157Z,1017.61
2018-08-22T05:46:41.186Z,1017.61
2018-08-22T05:48:41.249Z,1017.63
2018-08-22T05:49:41.281Z,1017.62
2018-08-22T05:50:41.311Z,1017.57
2018-08-22T05:51:41.343Z,1017.59
2018-08-22T05:52:41.373Z,1017.62
2018-08-22T05:53:41.413Z,1017.55
2018-08-22T05:54:41.437Z,1017.58
2018-08-22T05:55:41.470Z,1017.58
2018-08-22T05:56:41.501Z,1017.58
2018-08-22T05:57:41.625Z,1017.59
2018-08-22T05:58:41.566Z,1017.59
2018-08-22T05:59:41.598Z,1017.58
2018-08-22T06:00:41.630Z,1017.63
2018-08-22T06:01:41.663Z,1017.68
2018-08-22T06:03:41.730Z,1017.72
2018-08-22T06:04:41.762Z,1017.73
2018-08-22T06:05:41.795Z,1017.77
2018-08-22T06:06:41.829Z,1017.76
2018-08-22T06:07:41.862Z,1017.85
2018-08-22T06:08:41.898Z,1017.88
2018-08-22T06:09:41.927Z,1017.94
2018-08-22T06:10:41.963Z,1017.98
2018-08-22T06:11:41.994Z,1018.04
2018-08-22T06:12:42.027Z,1018.11
2018-08-22T06:13:42.062Z,1018.18
2018-08-22T06:14:42.096Z,1018.24
2018-08-22T06:15:42.138Z,1018.27
2018-08-22T06:16:42.163Z,1018.32
2018-08-22T06:17:42.198Z,1018.38
2018-08-22T06:18:42.232Z,1018.49
2018-08-22T06:19:42.266Z,1018.48
2018-08-22T06:20:42.300Z,1018.57
2018-08-22T06:21:42.333Z,1018.69
2018-08-22T06:22:42.369Z,1018.75
2018-08-22T06:23:42.402Z,1018.69
2018-08-22T06:24:42.437Z,1018.74
2018-08-22T06:25:42.475Z,1018.75
2018-08-22T06:26:42.505Z,1018.75
2018-08-22T06:27:42.540Z,1018.79
2018-08-22T06:28:42.575Z,1018.72
2018-08-22T06:29:42.609Z,1018.83
2018-08-22T06:30:42.642Z,1018.72
2018-08-22T06:31:42.678Z,1018.74
2018-08-22T06:32:42.713Z,1018.68
2018-08-22T06:33:42.747Z,1018.67
2018-08-22T06:35:42.817Z,1018.71
2018-08-22T06:36:42.852Z,1018.67
2018-08-22T06:37:42.897Z,1018.72
2018-08-22T06:38:42.948Z,1018.69
2018-08-22T06:39:42.957Z,1018.61
2018-08-22T06:40:42.992Z,1018.57
2018-08-22T06:41:43.027Z,1018.52
2018-08-22T06:42:43.061Z,1018.53
2018-08-22T06:43:43.101Z,1018.61
2018-08-22T06:44:43.133Z,1018.59
2018-08-22T06:45:43.167Z,1018.53
2018-08-22T06:46:43.205Z,1018.53
2018-08-22T06:47:43.240Z,1018.5
2018-08-22T06:48:43.274Z,1018.4
2018-08-22T06:49:43.310Z,1018.39
2018-08-22T06:51:43.382Z,1018.32
2018-08-22T06:52:43.418Z,1018.29
2018-08-22T06:53:43.453Z,1018.27
2018-08-22T06:54:43.488Z,1018.25
2018-08-22T06:55:43.523Z,1018.18
2018-08-22T06:56:43.559Z,1018.2
2018-08-22T06:57:43.596Z,1018.12
2018-08-22T06:58:43.631Z,1018.14
2018-08-22T06:59:43.666Z,1018.06
2018-08-22T07:00:43.703Z,1018.09
2018-08-22T07:01:43.739Z,1018.11
2018-08-22T07:02:43.774Z,1018.07
2018-08-22T07:03:43.809Z,1018.04
2018-08-22T07:04:43.845Z,1018.09
2018-08-22T07:05:43.883Z,1018.03
2018-08-22T07:07:43.953Z,1017.99
2018-08-22T07:08:43.989Z,1017.96
2018-08-22T07:09:44.026Z,1017.94
2018-08-22T07:10:44.064Z,1017.96
2018-08-22T07:11:44.097Z,1017.93
2018-08-22T07:12:44.134Z,1017.88
2018-08-22T07:13:44.170Z,1017.75
2018-08-22T07:14:44.205Z,1017.6
2018-08-22T07:15:44.241Z,1017.43
2018-08-22T07:16:44.278Z,1017.38
2018-08-22T07:17:44.313Z,1017.37
2018-08-22T07:18:44.350Z,1017.39
2018-08-22T07:19:44.387Z,1017.37
2018-08-22T07:20:44.423Z,1017.38
2018-08-22T07:21:44.460Z,1017.39
2018-08-22T07:23:44.531Z,1017.39
2018-08-22T07:24:44.567Z,1017.36
2018-08-22T07:25:44.605Z,1017.36
2018-08-22T07:26:44.642Z,1017.35
2018-08-22T07:27:44.678Z,1017.32
2018-08-22T07:28:44.714Z,1017.32
2018-08-22T07:29:44.856Z,1017.32
2018-08-22T07:30:44.789Z,1017.33
2018-08-22T07:31:44.829Z,1017.3
2018-08-22T07:32:44.862Z,1017.34
2018-08-22T07:33:44.898Z,1017.31
2018-08-22T07:34:44.936Z,1017.3
2018-08-22T07:35:45.005Z,1017.3
2018-08-22T07:36:45.010Z,1017.28
2018-08-22T07:38:45.084Z,1017.42
2018-08-22T07:39:45.121Z,1017.45
2018-08-22T07:40:45.157Z,1017.47
2018-08-22T07:41:45.194Z,1017.45
2018-08-22T07:42:45.231Z,1017.45
2018-08-22T07:43:45.268Z,1017.41
2018-08-22T07:44:45.305Z,1017.37
2018-08-22T07:45:45.342Z,1017.31
2018-08-22T07:46:45.378Z,1017.31
2018-08-22T07:47:45.414Z,1017.29
2018-08-22T07:48:45.453Z,1017.31
2018-08-22T07:49:45.490Z,1017.31
2018-08-22T07:50:45.526Z,1017.26
2018-08-22T07:51:45.563Z,1017.25
2018-08-22T07:52:45.600Z,1017.26
2018-08-22T07:53:45.637Z,1017.26
2018-08-22T07:54:45.673Z,1017.27
2018-08-22T07:55:45.710Z,1017.21
2018-08-22T07:56:45.747Z,1017.22
2018-08-22T07:57:45.783Z,1017.2
2018-08-22T07:58:45.820Z,1017.18
2018-08-22T07:59:45.857Z,1017.18
2018-08-22T08:00:45.895Z,1017.18
2018-08-22T08:01:45.984Z,1017.19
2018-08-22T08:02:45.967Z,1017.2
2018-08-22T08:03:46.004Z,1017.18
2018-08-22T08:04:46.041Z,1017.14
2018-08-22T08:05:46.079Z,1017.19
2018-08-22T08:06:46.113Z,1017.08
2018-08-22T08:07:46.154Z,1017.09
2018-08-22T08:08:46.277Z,1017.08
2018-08-22T08:10:46.357Z,1016.99
2018-08-22T08:11:46.396Z,1016.99
2018-08-22T08:12:46.333Z,1016.96
2018-08-22T08:13:46.367Z,1016.98
2018-08-22T08:14:46.404Z,1017.06
2018-08-22T08:15:46.441Z,1017.08
2018-08-22T08:16:46.477Z,1017.1
2018-08-22T08:17:46.524Z,1017.12
2018-08-22T08:18:46.550Z,1017.11
2018-08-22T08:19:46.585Z,1017.09
2018-08-22T08:20:46.621Z,1017.13
2018-08-22T08:21:46.657Z,1017.16
2018-08-22T08:22:46.694Z,1017.15
2018-08-22T08:23:46.730Z,1017.08
2018-08-22T08:24:46.766Z,1017.06
2018-08-22T08:26:46.837Z,1017.08
2018-08-22T08:27:46.873Z,1017.1
2018-08-22T08:28:46.910Z,1017.03
2018-08-22T08:29:46.946Z,1017.03
2018-08-22T08:30:46.982Z,1016.97
2018-08-22T08:31:47.018Z,1016.97
2018-08-22T08:32:47.054Z,1016.95
2018-08-22T08:33:47.089Z,1016.95
2018-08-22T08:34:47.124Z,1016.91
2018-08-22T08:35:47.212Z,1016.88
2018-08-22T08:36:47.197Z,1016.85
2018-08-22T08:37:47.237Z,1016.86
2018-08-22T08:38:47.267Z,1016.88
2018-08-22T08:39:47.304Z,1016.71
2018-08-22T08:40:47.339Z,1016.58
2018-08-22T08:42:47.410Z,1016.63
2018-08-22T08:43:47.446Z,1016.59
2018-08-22T08:44:47.486Z,1016.55
2018-08-22T08:45:47.516Z,1016.55
2018-08-22T08:46:47.553Z,1016.48
2018-08-22T08:47:47.588Z,1016.45
2018-08-22T08:48:47.637Z,1016.42
2018-08-22T08:49:47.661Z,1016.46
2018-08-22T08:50:47.695Z,1016.42
2018-08-22T08:51:47.730Z,1016.42
2018-08-22T08:52:47.765Z,1016.39
2018-08-22T08:53:47.801Z,1016.34
2018-08-22T08:54:47.843Z,1016.31
2018-08-22T08:55:47.872Z,1016.3
2018-08-22T08:56:47.907Z,1016.27
2018-08-22T08:58:47.977Z,1016.28
2018-08-22T08:59:48.013Z,1016.24
2018-08-22T09:00:48.074Z,1016.22
2018-08-22T09:01:48.083Z,1016.18
2018-08-22T09:02:48.119Z,1016.17
2018-08-22T09:03:48.229Z,1016.19
2018-08-22T09:04:48.189Z,1016.18
2018-08-22T09:05:48.225Z,1016.18
2018-08-22T09:06:48.261Z,1016.15
2018-08-22T09:07:48.295Z,1016.18
2018-08-22T09:08:48.331Z,1016.14
2018-08-22T09:09:48.365Z,1016.09
2018-08-22T09:10:48.540Z,1016.07
2018-08-22T09:11:48.436Z,1016.03
2018-08-22T09:13:48.508Z,1016.03
2018-08-22T09:14:48.541Z,1016.02
2018-08-22T09:15:48.577Z,1016.02
2018-08-22T09:16:48.612Z,1015.97
2018-08-22T09:17:48.648Z,1015.95
2018-08-22T09:18:48.682Z,1015.92
2018-08-22T09:19:48.740Z,1015.92
2018-08-22T09:20:48.752Z,1015.94
2018-08-22T09:21:48.787Z,1015.98
2018-08-22T09:22:48.822Z,1015.94
2018-08-22T09:23:48.858Z,1015.95
2018-08-22T09:24:48.892Z,1015.92
2018-08-22T09:25:48.931Z,1015.9
2018-08-22T09:26:48.962Z,1015.92
2018-08-22T09:27:48.997Z,1015.92
2018-08-22T09:28:49.032Z,1015.91
2018-08-22T09:29:49.079Z,1015.91
2018-08-22T09:30:49.101Z,1015.83
2018-08-22T09:31:49.136Z,1015.83
2018-08-22T09:32:49.169Z,1015.81
2018-08-22T09:33:49.208Z,1015.8
2018-08-22T09:34:49.240Z,1015.81
2018-08-22T09:35:49.321Z,1015.8
2018-08-22T09:36:49.309Z,1015.8
2018-08-22T09:37:49.344Z,1015.8
2018-08-22T09:38:49.380Z,1015.81
2018-08-22T09:39:49.482Z,1015.8
2018-08-22T09:40:49.448Z,1015.8
2018-08-22T09:41:49.483Z,1015.77
2018-08-22T09:42:49.518Z,1015.78
2018-08-22T09:43:49.553Z,1015.77
2018-08-22T09:45:49.622Z,1015.73
2018-08-22T09:46:49.825Z,1015.7
2018-08-22T09:47:49.692Z,1015.72
2018-08-22T09:48:49.725Z,1015.69
2018-08-22T09:49:49.760Z,1015.68
2018-08-22T09:50:49.807Z,1015.63
2018-08-22T09:51:49.829Z,1015.64
2018-08-22T09:52:49.863Z,1015.6
2018-08-22T09:53:49.948Z,1015.57
2018-08-22T09:54:49.932Z,1015.55
2018-08-22T09:55:49.967Z,1015.58
2018-08-22T09:56:50.001Z,1015.54
2018-08-22T09:57:50.035Z,1015.51
2018-08-22T09:58:50.069Z,1015.51
2018-08-22T09:59:50.105Z,1015.53
2018-08-22T10:01:50.173Z,1015.47
2018-08-22T10:02:50.209Z,1015.48
2018-08-22T10:03:50.241Z,1015.49
2018-08-22T10:04:50.276Z,1015.49
2018-08-22T10:05:50.309Z,1015.52
2018-08-22T10:06:50.451Z,1015.53
2018-08-22T10:07:50.379Z,1015.52
2018-08-22T10:08:50.413Z,1015.49
2018-08-22T10:09:50.468Z,1015.43
2018-08-22T10:10:50.482Z,1015.42
2018-08-22T10:11:50.517Z,1015.45
2018-08-22T10:12:50.550Z,1015.44
2018-08-22T10:13:50.583Z,1015.43
2018-08-22T10:14:50.718Z,1015.43
2018-08-22T10:15:50.659Z,1015.46
2018-08-22T10:17:50.719Z,1015.4
2018-08-22T10:18:50.753Z,1015.39
2018-08-22T10:19:50.789Z,1015.4
2018-08-22T10:20:50.831Z,1015.41
2018-08-22T10:21:50.853Z,1015.39
2018-08-22T10:22:50.892Z,1015.35
2018-08-22T10:23:50.929Z,1015.37
2018-08-22T10:24:50.955Z,1015.35
2018-08-22T10:25:50.989Z,1015.32
2018-08-22T10:26:51.022Z,1015.3
2018-08-22T10:27:51.055Z,1015.31
2018-08-22T10:28:51.089Z,1015.32
2018-08-22T10:29:51.122Z,1015.25
2018-08-22T10:30:51.156Z,1015.24
2018-08-22T10:31:51.188Z,1015.27
2018-08-22T10:33:51.254Z,1015.26
2018-08-22T10:34:51.288Z,1015.22
2018-08-22T10:35:51.320Z,1015.2
2018-08-22T10:36:51.352Z,1015.18
2018-08-22T10:37:51.386Z,1015.17
2018-08-22T10:38:51.420Z,1015.15
2018-08-22T10:39:51.451Z,1015.2
2018-08-22T10:40:51.483Z,1015.14
2018-08-22T10:41:51.516Z,1015.17
2018-08-22T10:42:51.548Z,1015.12
2018-08-22T10:43:51.581Z,1015.11
2018-08-22T10:44:51.613Z,1015.06
2018-08-22T10:45:51.646Z,1015.02
2018-08-22T10:46:51.679Z,1015.05
2018-08-22T10:48:51.744Z,1015.07
2018-08-22T10:49:51.773Z,1015.06
2018-08-22T10:50:51.807Z,1015.06
2018-08-22T10:51:51.839Z,1015.02
2018-08-22T10:52:51.871Z,1015.03
2018-08-22T10:53:51.906Z,1015.06
2018-08-22T10:54:51.934Z,1015.04
2018-08-22T10:55:51.966Z,1015.06
2018-08-22T10:56:51.997Z,1015.06
2018-08-22T10:57:52.029Z,1015.03
2018-08-22T10:58:52.061Z,1015.01
2018-08-22T10:59:52.093Z,1014.98
2018-08-22T11:00:52.128Z,1015.02
2018-08-22T11:01:52.179Z,1014.98
2018-08-22T11:02:52.188Z,1015
2018-08-22T11:03:52.225Z,1014.94
2018-08-22T11:04:52.248Z,1014.94
2018-08-22T11:05:52.281Z,1014.95
2018-08-22T11:06:52.315Z,1014.92
2018-08-22T11:07:52.341Z,1014.9
2018-08-22T11:08:52.372Z,1014.87
2018-08-22T11:09:52.412Z,1014.88
2018-08-22T11:10:52.435Z,1014.83
2018-08-22T11:11:52.464Z,1014.78
2018-08-22T11:12:52.495Z,1014.82
2018-08-22T11:13:52.526Z,1014.8
2018-08-22T11:14:52.557Z,1014.8
2018-08-22T11:15:52.719Z,1014.82
2018-08-22T11:16:52.617Z,1014.81
2018-08-22T11:17:52.652Z,1014.75
2018-08-22T11:18:52.677Z,1014.77
2018-08-22T11:20:52.741Z,1014.77
2018-08-22T11:21:52.769Z,1014.74
2018-08-22T11:22:52.801Z,1014.69
2018-08-22T11:23:52.831Z,1014.73
2018-08-22T11:24:52.859Z,1014.7
2018-08-22T11:25:52.889Z,1014.71
2018-08-22T11:26:52.921Z,1014.65
2018-08-22T11:27:52.948Z,1014.7
2018-08-22T11:28:52.979Z,1014.75
2018-08-22T11:29:53.008Z,1014.71
2018-08-22T11:30:53.039Z,1014.68
2018-08-22T11:31:53.103Z,1014.7
2018-08-22T11:32:53.098Z,1014.67
2018-08-22T11:33:53.127Z,1014.66
2018-08-22T11:34:53.158Z,1014.65
2018-08-22T11:36:53.217Z,1014.63
2018-08-22T11:37:53.246Z,1014.62
2018-08-22T11:38:53.276Z,1014.6
2018-08-22T11:39:53.306Z,1014.61
2018-08-22T11:40:53.334Z,1014.61
2018-08-22T11:41:53.364Z,1014.62
2018-08-22T11:42:53.394Z,1014.61
2018-08-22T11:43:53.424Z,1014.56
2018-08-22T11:44:53.454Z,1014.52
2018-08-22T11:45:53.485Z,1014.57
2018-08-22T11:46:53.515Z,1014.55
2018-08-22T11:47:53.543Z,1014.56
2018-08-22T11:48:53.572Z,1014.55
2018-08-22T11:49:53.604Z,1014.57
2018-08-22T11:50:53.631Z,1014.53
2018-08-22T11:52:53.693Z,1014.55
2018-08-22T11:53:53.719Z,1014.51
2018-08-22T11:54:53.750Z,1014.53
2018-08-22T11:55:53.782Z,1014.47
2018-08-22T11:56:53.813Z,1014.47
2018-08-22T11:57:53.839Z,1014.42
2018-08-22T11:58:53.869Z,1014.44
2018-08-22T11:59:53.898Z,1014.45
2018-08-22T12:00:53.928Z,1014.44
2018-08-22T12:01:53.977Z,1014.45
2018-08-22T12:02:53.986Z,1014.4
2018-08-22T12:03:54.015Z,1014.4
2018-08-22T12:04:54.049Z,1014.4
2018-08-22T12:05:54.076Z,1014.43
2018-08-22T12:06:54.105Z,1014.45
2018-08-22T12:08:54.163Z,1014.36
2018-08-22T12:09:54.196Z,1014.31
2018-08-22T12:10:54.222Z,1014.31
2018-08-22T12:11:54.252Z,1014.3
2018-08-22T12:12:54.281Z,1014.27
2018-08-22T12:13:54.309Z,1014.27
2018-08-22T12:14:54.341Z,1014.3
2018-08-22T12:15:54.369Z,1014.27
2018-08-22T12:16:54.398Z,1014.28
2018-08-22T12:17:54.427Z,1014.26
2018-08-22T12:18:54.456Z,1014.24
2018-08-22T12:19:54.486Z,1014.24
2018-08-22T12:20:54.515Z,1014.22
2018-08-22T12:21:54.548Z,1014.23
2018-08-22T12:23:54.603Z,1014.23
2018-08-22T12:24:54.631Z,1014.23
2018-08-22T12:25:54.661Z,1014.2
2018-08-22T12:26:54.690Z,1014.24
2018-08-22T12:27:54.720Z,1014.22
2018-08-22T12:28:54.748Z,1014.18
2018-08-22T12:29:54.778Z,1014.14
2018-08-22T12:30:54.806Z,1014.13
2018-08-22T12:31:54.834Z,1014.07
2018-08-22T12:32:54.865Z,1014.08
2018-08-22T12:33:54.893Z,1014.09
2018-08-22T12:34:54.925Z,1014.08
2018-08-22T12:35:54.952Z,1014.06
2018-08-22T12:36:54.980Z,1014.06
2018-08-22T12:37:55.009Z,1014.04
2018-08-22T12:38:55.038Z,1014.03
2018-08-22T12:39:55.068Z,1014.04
2018-08-22T12:40:55.095Z,1014.07
2018-08-22T12:41:55.127Z,1014.01
2018-08-22T12:42:55.152Z,1014.01
2018-08-22T12:43:55.181Z,1014
2018-08-22T12:44:55.211Z,1013.97
2018-08-22T12:45:55.240Z,1013.98
2018-08-22T12:46:55.267Z,1013.98
2018-08-22T12:47:55.297Z,1013.96
2018-08-22T12:48:55.326Z,1013.98